Latest Weather Observations for Moranbah Airport

IDQ60801

Issued at 11:35 am EST Sunday 23 November 2014 (issued every 30 minutes, with the page automatically refreshed every 10 minutes)

About weather observations | Map of weather stations | Latest weather observations for QLD | Other Formats
Station Details ID: 034035 Name: MORANBAH AIRPORT Lat: -22.06 Lon: 148.08 Height: 232.2 m
Data from the previous 72 hours. | See also: Recent months at Moranbah Airport
Date/Time
EST
Temp
°C
App
Temp
°C
Dew
Point
Rel
Hum
%
Delta-T
°C
Wind Press
QNH
hPa
Press
MSL
hPa
Rain
since 9 am
mm
Dir
 
Spd
km/h
Gust
km/h
Spd
kts
Gust
kts
23/11:30am 32.9 32.2 15.4 35 11.0 ENE 13 22 7 12 1015.7 1014.4 0.0
23/11:00am 32.0 32.3 15.9 38 10.1 NNE 9 15 5 8 1016.4 1015.1 0.0
23/10:30am 31.8 30.5 16.9 40 9.5 NNE 19 28 10 15 1016.6 1015.3 0.0
23/10:00am 29.4 29.5 16.6 46 8.1 N 11 20 6 11 1017.2 1015.8 0.0
23/09:30am 29.8 30.7 17.6 48 7.8 NNW 9 20 5 11 1017.4 1016.0 0.0
23/09:00am 28.6 28.1 16.8 48 7.4 NE 15 26 8 14 1017.5 1016.1 0.0
23/08:30am 27.4 27.6 17.6 55 6.2 NNE 13 19 7 10 1017.5 1016.1 0.0
23/08:00am 26.4 27.5 18.0 60 5.3 NNE 9 15 5 8 1017.3 1015.9 0.0
23/07:30am 25.5 26.1 17.7 62 4.9 N 11 19 6 10 1017.2 1015.8 0.0
23/07:00am 25.4 26.6 18.3 65 4.5 NE 9 13 5 7 1017.0 1015.6 0.0
23/06:30am 24.5 25.6 18.9 71 3.6 E 11 15 6 8 1016.6 1015.3 0.0
23/06:00am 23.1 24.2 18.8 77 2.7 E 11 13 6 7 1016.3 1015.0 0.0
23/05:30am 20.9 21.8 17.5 81 2.1 ESE 9 11 5 6 1015.8 1014.5 0.0
23/05:00am 21.2 21.5 17.8 81 2.1 ESE 13 13 7 7 1015.4 1014.0 0.0
23/04:30am 21.0 21.1 17.4 80 2.2 ESE 13 13 7 7 1015.2 1013.8 0.0
23/04:00am 21.3 22.0 17.1 77 2.6 E 9 11 5 6 1014.7 1013.3 0.0
23/03:30am 21.8 22.6 17.2 75 2.9 E 9 11 5 6 1014.5 1013.1 0.0
23/03:00am 22.3 23.1 17.4 74 3.1 E 9 11 5 6 1014.5 1013.1 0.0
23/02:30am 22.7 23.5 17.4 72 3.3 ENE 9 11 5 6 1014.3 1012.9 0.0
23/02:00am 23.2 24.1 17.6 71 3.5 ENE 9 11 5 6 1014.5 1013.1 0.0
23/01:30am 23.8 24.1 18.0 70 3.7 NE 13 17 7 9 1014.5 1013.1 0.0
23/01:00am 23.3 24.2 17.5 70 3.6 ENE 9 11 5 6 1014.4 1013.0 0.0
23/12:30am 24.0 24.4 17.3 66 4.2 E 11 13 6 7 1014.5 1013.1 0.0
23/12:00am 24.1 24.6 16.6 63 4.6 ENE 9 11 5 6 1014.8 1013.4 0.0
 
Date/Time
EST
Temp
°C
App
Temp
°C
Dew
Point
Rel
Hum
%
Delta-T
°C
Wind Press
QNH
hPa
Press
MSL
hPa
Rain
since 9 am
mm
Dir
 
Spd
km/h
Gust
km/h
Spd
kts
Gust
kts
22/11:30pm 24.9 24.8 16.1 58 5.4 E 11 13 6 7 1014.8 1013.4 0.0
22/11:00pm 25.8 26.7 16.6 56 5.7 ENE 7 9 4 5 1014.8 1013.4 0.0
22/10:30pm 26.2 26.2 16.2 54 6.2 E 11 15 6 8 1014.7 1013.3 0.0
22/10:00pm 26.6 25.9 15.3 50 6.9 E 13 15 7 8 1014.6 1013.2 0.0
22/09:30pm 27.3 26.6 15.3 48 7.4 E 13 15 7 8 1014.4 1013.0 0.0
22/09:00pm 28.2 27.3 15.8 47 7.7 ENE 15 20 8 11 1014.1 1012.7 0.0
22/08:30pm 28.9 27.3 16.5 47 7.8 ENE 20 33 11 18 1013.5 1012.1 0.0
22/08:00pm 29.3 26.8 17.2 48 7.7 ENE 26 35 14 19 1013.2 1011.8 0.0
22/07:30pm 30.2 26.6 17.3 46 8.2 ENE 32 41 17 22 1012.7 1011.3 0.0
22/07:00pm 31.8 29.2 17.7 43 9.1 ENE 28 39 15 21 1011.9 1010.6 0.0
22/06:30pm 33.6 31.2 17.3 37 10.5 ENE 26 37 14 20 1011.2 1009.8 0.0
22/06:00pm 35.4 33.3 15.2 30 12.8 E 20 26 11 14 1010.7 1009.3 0.0
22/05:30pm 36.0 34.5 15.2 29 13.1 E 17 28 9 15 1010.4 1009.0 0.0
22/05:00pm 36.3 34.7 14.9 28 13.5 ESE 17 28 9 15 1010.2 1008.8 0.0
22/04:30pm 36.6 34.7 15.1 27 13.6 E 19 30 10 16 1010.2 1008.8 0.0
22/04:00pm 36.8 35.1 14.7 26 13.9 E 17 30 9 16 1010.2 1008.8 0.0
22/03:30pm 37.0 35.4 14.9 27 14.0 E 17 28 9 15 1010.4 1009.0 0.0
22/03:00pm 36.7 35.2 15.2 27 13.6 ESE 17 24 9 13 1010.8 1009.4 0.0
22/02:30pm 36.8 35.9 15.8 28 13.4 E 15 24 8 13 1011.2 1009.8 0.0
22/02:00pm 35.7 34.4 15.9 30 12.6 E 17 26 9 14 1011.8 1010.5 0.0
22/01:30pm 36.6 36.6 17.2 31 12.6 NE 13 22 7 12 1012.4 1011.0 0.0
22/01:00pm 35.0 34.3 16.3 32 12.0 ENE 15 26 8 14 1013.0 1011.6 0.0
22/12:30pm 35.2 34.1 17.4 34 11.6 ESE 19 26 10 14 1013.6 1012.2 0.0
22/12:00pm 34.6 36.0 17.8 37 11.0 S 7 17 4 9 1014.2 1012.8 0.0
22/11:30am 33.3 34.0 17.0 37 10.5 E 9 19 5 10 1014.7 1013.3 0.0
22/11:00am 32.6 33.9 17.6 40 9.7 NNW 7 17 4 9 1015.2 1013.8 0.0
22/10:30am 31.9 32.2 17.0 41 9.5 SSE 11 24 6 13 1015.6 1014.3 0.0
22/10:00am 31.1 31.6 17.4 44 8.8 N 11 20 6 11 1015.8 1014.5 0.0
22/09:30am 30.2 29.6 17.6 46 8.1 N 17 28 9 15 1015.9 1014.6 0.0
22/09:00am 29.2 28.8 18.0 51 7.2 N 17 24 9 13 1015.8 1014.5 0.0
22/08:30am 28.1 28.1 18.2 55 6.4 N 15 20 8 11 1016.3 1015.0 0.0
22/08:00am 27.8 27.4 18.8 58 5.8 NNW 19 28 10 15 1015.8 1014.5 0.0
22/07:30am 26.3 25.7 18.9 63 4.8 N 20 26 11 14 1015.7 1014.4 0.0
22/07:00am 26.3 25.3 18.9 63 4.8 N 22 28 12 15 1015.7 1014.4 0.0
22/06:30am 24.9 25.7 19.0 69 3.8 NNW 13 20 7 11 1015.9 1014.6 0.0
22/06:00am 24.0 23.7 19.1 74 3.2 NNW 19 20 10 11 1015.2 1013.8 0.0
22/05:30am 23.7 25.8 19.4 77 2.8 WNW 7 11 4 6 1015.0 1013.6 0.0
22/05:00am 22.6 24.6 18.8 79 2.4 SW 6 9 3 5 1014.5 1013.1 0.0
22/04:30am 22.7 24.9 19.3 81 2.2 NNW 6 11 3 6 1013.5 1012.1 0.0
22/04:00am 22.4 25.5 18.6 79 2.4 CALM 0 4 0 2 1013.4 1012.0 0.0
22/03:30am 22.5 25.5 18.5 78 2.5 CALM 0 0 0 0 1013.1 1011.7 0.0
22/03:00am 22.7 25.7 18.5 77 2.7 CALM 0 0 0 0 1012.8 1011.4 0.0
22/02:30am 23.1 24.6 18.8 77 2.7 NE 9 11 5 6 1012.7 1011.3 0.0
22/02:00am 23.3 24.4 18.8 76 2.9 E 11 11 6 6 1012.8 1011.4 0.0
22/01:30am 23.6 25.1 18.9 75 3.0 ENE 9 9 5 5 1013.1 1011.7 0.0
22/01:00am 24.2 26.0 19.5 75 3.0 ENE 9 11 5 6 1013.6 1012.2 0.0
22/12:30am 24.5 25.4 19.3 73 3.4 E 13 15 7 8 1013.5 1012.1 0.0
22/12:00am 24.9 25.9 19.5 72 3.5 ENE 13 15 7 8 1013.6 1012.2 0.0
 
Date/Time
EST
Temp
°C
App
Temp
°C
Dew
Point
Rel
Hum
%
Delta-T
°C
Wind Press
QNH
hPa
Press
MSL
hPa
Rain
since 9 am
mm
Dir
 
Spd
km/h
Gust
km/h
Spd
kts
Gust
kts
21/11:30pm 25.3 26.3 19.4 70 3.8 E 13 15 7 8 1014.0 1012.6 0.0
21/11:00pm 25.7 26.6 19.3 67 4.2 E 13 17 7 9 1013.8 1012.4 0.0
21/10:30pm 26.4 27.3 19.3 65 4.6 E 13 15 7 8 1014.0 1012.6 0.0
21/10:00pm 26.9 27.7 19.0 62 5.1 E 13 17 7 9 1013.5 1012.1 0.0
21/09:30pm 27.6 28.3 18.9 59 5.6 E 13 17 7 9 1013.3 1011.9 0.0
21/09:00pm 28.5 28.5 18.9 56 6.2 ENE 17 20 9 11 1013.0 1011.6 0.0
21/08:30pm 29.1 29.3 18.5 52 6.9 ENE 15 20 8 11 1012.5 1011.1 0.0
21/08:00pm 29.9 29.6 18.3 49 7.5 NE 17 24 9 13 1011.9 1010.6 0.0
21/07:30pm 30.9 29.5 17.9 45 8.4 NE 22 32 12 17 1011.2 1009.8 0.0
21/07:00pm 32.1 30.8 17.2 41 9.6 ENE 20 30 11 16 1010.7 1009.3 0.0
21/06:30pm 33.8 31.3 16.2 35 11.2 ENE 24 35 13 19 1010.1 1008.7 0.0
21/06:00pm 36.5 34.3 12.0 23 14.8 E 15 20 8 11 1009.5 1008.1 0.0
21/05:30pm 37.2 34.2 11.9 22 15.3 ENE 19 20 10 11 1009.3 1007.9 0.0
21/05:00pm 37.8 36.4 11.0 20 16.1 N 9 15 5 8 1009.2 1007.8 0.0
21/04:30pm 38.0 36.3 11.1 20 16.2 N 11 17 6 9 1009.3 1007.9 0.0
21/04:00pm 38.5 37.2 10.0 18 16.9 NW 7 11 4 6 1009.6 1008.2 0.0
21/03:30pm 37.8 34.8 9.4 18 16.6 ENE 15 22 8 12 1009.8 1008.4 0.0
21/03:00pm 38.2 35.9 10.5 19 16.5 N 13 24 7 13 1010.1 1008.7 0.0
21/02:30pm 37.5 36.0 10.7 20 16.0 E 9 19 5 10 1010.7 1009.3 0.0
21/02:00pm 37.6 34.6 10.8 20 16.0 NW 17 24 9 13 1011.2 1009.8 0.0
21/01:30pm 36.9 34.9 10.2 20 15.8 NNW 11 22 6 12 1011.7 1010.4 0.0
21/01:00pm 36.5 34.4 11.3 22 15.1 NE 13 22 7 12 1012.4 1011.0 0.0
21/12:30pm 34.9 32.3 10.7 23 14.3 NNE 15 22 8 12 1013.0 1011.6 0.0
21/12:00pm 34.9 33.0 13.1 27 13.3 N 15 22 8 12 1013.6 1012.2 0.0
21/11:30am 33.6 32.7 13.6 29 12.3 N 11 17 6 9 1014.2 1012.8 0.0
21/11:00am 33.0 32.2 15.0 33 11.2 N 13 22 7 12 1014.8 1013.4 0.0
21/10:30am 31.4 31.5 15.4 38 10.0 NE 9 19 5 10 1015.4 1014.0 0.0
21/10:00am 31.0 30.9 17.0 43 8.9 NE 13 22 7 12 1015.8 1014.5 0.0
21/09:30am 28.9 29.0 16.5 47 7.8 NNE 11 17 6 9 1016.2 1014.9 0.0
21/09:00am 28.8 28.7 17.0 49 7.5 NNE 13 20 7 11 1016.2 1014.9 0.0
21/08:30am 27.7 27.3 17.2 52 6.6 ENE 15 20 8 11 1016.5 1015.2 0.0
21/08:00am 26.4 25.9 16.9 56 6.0 NNE 15 24 8 13 1016.4 1015.1 0.0
21/07:30am 25.5 25.3 17.7 62 4.9 NNE 15 20 8 11 1016.2 1014.9 0.0
21/07:00am 24.6 24.6 18.1 67 4.1 N 15 20 8 11 1016.2 1014.9 0.0
21/06:30am 24.0 25.1 18.0 69 3.8 N 9 13 5 7 1016.0 1014.7 0.0
21/06:00am 22.8 25.2 17.9 74 3.1 N 2 6 1 3 1015.8 1014.5 0.0
21/05:30am 21.2 22.8 16.8 76 2.7 SW 4 6 2 3 1015.5 1014.2 0.0
21/05:00am 21.4 22.5 17.0 76 2.7 SW 7 9 4 5 1015.2 1013.8 0.0
21/04:30am 21.9 23.3 17.3 75 2.9 W 6 7 3 4 1014.9 1013.5 0.0
21/04:00am 22.2 23.6 17.3 74 3.0 ESE 6 7 3 4 1014.7 1013.3 0.0
21/03:30am 22.3 23.1 17.2 73 3.2 E 9 9 5 5 1014.1 1012.7 0.0
21/03:00am 22.2 22.9 17.1 73 3.2 ESE 9 9 5 5 1014.1 1012.7 0.0
21/02:30am 22.4 23.6 17.3 73 3.2 ESE 7 9 4 5 1014.2 1012.8 0.0
21/02:00am 22.6 23.8 17.3 72 3.3 NE 7 7 4 4 1013.8 1012.4 0.0
21/01:30am 22.5 23.2 17.0 71 3.4 NNE 9 11 5 6 1013.7 1012.3 0.0
21/01:00am 22.9 23.6 17.1 70 3.6 NE 9 9 5 5 1013.7 1012.3 0.0
21/12:30am 23.5 24.4 17.5 69 3.8 NE 9 13 5 7 1014.0 1012.6 0.0
21/12:00am 23.6 23.9 17.1 67 4.0 ENE 11 15 6 8 1014.2 1012.8 0.0
 
Date/Time
EST
Temp
°C
App
Temp
°C
Dew
Point
Rel
Hum
%
Delta-T
°C
Wind Press
QNH
hPa
Press
MSL
hPa
Rain
since 9 am
mm
Dir
 
Spd
km/h
Gust
km/h
Spd
kts
Gust
kts
20/11:30pm 24.3 23.2 17.3 65 4.4 ENE 19 26 10 14 1014.4 1013.0 0.0
20/11:00pm 24.6 23.4 17.1 63 4.7 ENE 19 22 10 12 1014.6 1013.2 0.0
20/10:30pm 25.0 23.8 17.0 61 5.0 ENE 19 30 10 16 1014.9 1013.5 0.0
20/10:00pm 25.5 24.1 16.9 59 5.4 ENE 20 24 11 13 1014.8 1013.4 0.0
20/09:30pm 26.1 24.5 16.6 55 5.9 ENE 20 26 11 14 1014.7 1013.3 0.0
20/09:00pm 26.9 25.1 15.9 51 6.8 ENE 20 26 11 14 1014.3 1012.9 0.0
20/08:30pm 27.9 25.5 14.5 44 8.1 ENE 20 24 11 13 1013.9 1012.5 0.0
20/08:00pm 29.2 24.8 13.0 37 9.7 NE 28 37 15 20 1013.1 1011.7 0.0
20/07:30pm 30.5 26.6 13.3 35 10.4 ENE 26 39 14 21 1012.3 1010.9 0.0
20/07:00pm 31.8 28.1 14.0 34 10.9 NE 26 35 14 19 1011.5 1010.1 0.0
20/06:30pm 33.0 29.2 14.6 33 11.4 ENE 28 37 15 20 1010.8 1009.4 0.0
20/06:00pm 34.7 31.4 15.1 31 12.3 NE 26 33 14 18 1010.4 1009.0 0.0
20/05:30pm 36.1 33.2 15.2 28 13.2 ENE 24 30 13 16 1009.9 1008.5 0.0
20/05:00pm 36.9 36.5 14.2 25 14.2 E 9 13 5 7 1009.7 1008.3 0.0
20/04:30pm 37.5 37.3 14.7 25 14.4 NW 9 19 5 10 1009.7 1008.3 0.0
20/04:00pm 37.0 35.7 13.7 25 14.5 NW 13 17 7 9 1009.8 1008.4 0.0
20/03:30pm 36.6 36.4 14.6 27 13.8 NNE 9 24 5 13 1010.2 1008.8 0.0
20/03:00pm 36.5 35.3 13.9 26 14.1 N 13 20 7 11 1010.6 1009.2 0.0
20/02:30pm 36.3 34.4 14.3 27 13.7 WNW 17 24 9 13 1011.0 1009.6 0.0
20/02:00pm 36.6 34.3 14.6 27 13.8 NW 20 30 11 16 1011.4 1010.0 0.0
20/01:30pm 35.4 34.0 14.6 28 13.0 NNE 15 22 8 12 1012.1 1010.8 0.0
20/01:00pm 35.5 34.2 14.7 28 13.0 N 15 26 8 14 1012.8 1011.4 0.0
20/12:30pm 36.0 34.3 16.2 31 12.7 N 20 30 11 16 1013.4 1012.0 0.0
20/12:00pm 34.2 33.4 16.1 34 11.5 NNW 15 26 8 14 1014.0 1012.6 0.0

Other Formats:

Comma delimited format used in spreadsheet applications
http://www.bom.gov.au/fwo/IDQ60801/IDQ60801.94397.axf

JavaScript Object Notation format (JSON) in row-major order
http://www.bom.gov.au/fwo/IDQ60801/IDQ60801.94397.json